sensor_id;sensor_type;location;lat;lon;timestamp;pressure;altitude;pressure_sealevel;temperature;humidity
68107;BME280;54892;47.488;19.026;2023-04-01T00:02:15;98623.91;;;10.50;81.83
68107;BME280;54892;47.488;19.026;2023-04-01T00:05:18;98617.66;;;10.46;82.45
68107;BME280;54892;47.488;19.026;2023-04-01T00:08:21;98604.59;;;10.55;82.27
68107;BME280;54892;47.488;19.026;2023-04-01T00:11:25;98619.59;;;10.40;83.49
68107;BME280;54892;47.488;19.026;2023-04-01T00:14:29;98628.56;;;10.39;83.46
68107;BME280;54892;47.488;19.026;2023-04-01T00:17:32;98622.75;;;10.37;83.84
68107;BME280;54892;47.488;19.026;2023-04-01T00:20:35;98613.91;;;10.28;84.26
68107;BME280;54892;47.488;19.026;2023-04-01T00:23:38;98617.66;;;10.27;84.26
68107;BME280;54892;47.488;19.026;2023-04-01T00:26:42;98622.41;;;10.25;84.20
68107;BME280;54892;47.488;19.026;2023-04-01T00:29:46;98618.28;;;10.18;84.69
68107;BME280;54892;47.488;19.026;2023-04-01T00:32:51;98621.41;;;10.20;84.88
68107;BME280;54892;47.488;19.026;2023-04-01T00:35:54;98620.84;;;10.24;84.87
68107;BME280;54892;47.488;19.026;2023-04-01T00:38:57;98610.31;;;10.24;84.52
68107;BME280;54892;47.488;19.026;2023-04-01T00:42:02;98607.56;;;10.29;83.82
68107;BME280;54892;47.488;19.026;2023-04-01T00:48:23;98606.22;;;10.31;83.07
68107;BME280;54892;47.488;19.026;2023-04-01T00:51:28;98600.16;;;10.31;82.54
68107;BME280;54892;47.488;19.026;2023-04-01T00:54:32;98606.44;;;10.35;82.15
68107;BME280;54892;47.488;19.026;2023-04-01T00:57:38;98604.81;;;10.39;81.77
68107;BME280;54892;47.488;19.026;2023-04-01T01:00:42;98590.84;;;10.39;81.92
68107;BME280;54892;47.488;19.026;2023-04-01T01:03:45;98600.06;;;10.41;81.87
68107;BME280;54892;47.488;19.026;2023-04-01T01:06:50;98601.63;;;10.42;81.69
68107;BME280;54892;47.488;19.026;2023-04-01T01:09:56;98601.88;;;10.41;81.32
68107;BME280;54892;47.488;19.026;2023-04-01T01:13:07;98597.87;;;10.43;80.92
68107;BME280;54892;47.488;19.026;2023-04-01T01:16:14;98601.03;;;10.45;80.74
68107;BME280;54892;47.488;19.026;2023-04-01T01:19:29;98604.25;;;10.42;81.21
68107;BME280;54892;47.488;19.026;2023-04-01T01:22:36;98597.13;;;10.43;81.13
68107;BME280;54892;47.488;19.026;2023-04-01T01:25:44;98592.03;;;10.46;80.56
68107;BME280;54892;47.488;19.026;2023-04-01T01:28:54;98587.62;;;10.42;80.43
68107;BME280;54892;47.488;19.026;2023-04-01T01:32:05;98584.13;;;10.46;80.40
68107;BME280;54892;47.488;19.026;2023-04-01T01:35:16;98581.00;;;10.44;79.96
68107;BME280;54892;47.488;19.026;2023-04-01T01:38:21;98584.13;;;10.46;79.98
68107;BME280;54892;47.488;19.026;2023-04-01T01:41:24;98590.41;;;10.50;79.86
68107;BME280;54892;47.488;19.026;2023-04-01T01:44:28;98581.41;;;10.51;79.64
68107;BME280;54892;47.488;19.026;2023-04-01T01:47:33;98589.31;;;10.51;79.68
68107;BME280;54892;47.488;19.026;2023-04-01T01:50:39;98594.59;;;10.51;79.93
68107;BME280;54892;47.488;19.026;2023-04-01T01:53:43;98585.13;;;10.50;79.54
68107;BME280;54892;47.488;19.026;2023-04-01T01:56:46;98590.59;;;10.54;79.05
68107;BME280;54892;47.488;19.026;2023-04-01T01:59:51;98586.88;;;10.55;78.53
68107;BME280;54892;47.488;19.026;2023-04-01T02:02:55;98591.28;;;10.60;77.98
68107;BME280;54892;47.488;19.026;2023-04-01T02:06:00;98590.31;;;10.56;78.04
68107;BME280;54892;47.488;19.026;2023-04-01T02:09:04;98585.81;;;10.56;77.81
68107;BME280;54892;47.488;19.026;2023-04-01T02:12:09;98587.38;;;10.57;78.12
68107;BME280;54892;47.488;19.026;2023-04-01T02:15:14;98587.19;;;10.54;78.67
68107;BME280;54892;47.488;19.026;2023-04-01T02:18:18;98589.53;;;10.55;78.18
68107;BME280;54892;47.488;19.026;2023-04-01T02:21:23;98583.19;;;10.56;77.73
68107;BME280;54892;47.488;19.026;2023-04-01T02:24:27;98579.47;;;10.57;77.39
68107;BME280;54892;47.488;19.026;2023-04-01T02:27:31;98580.72;;;10.60;77.20
68107;BME280;54892;47.488;19.026;2023-04-01T02:30:35;98578.59;;;10.62;76.96
68107;BME280;54892;47.488;19.026;2023-04-01T02:33:39;98578.81;;;10.65;76.35
68107;BME280;54892;47.488;19.026;2023-04-01T02:36:43;98566.41;;;10.66;76.13
68107;BME280;54892;47.488;19.026;2023-04-01T02:39:46;98571.97;;;10.64;75.84
68107;BME280;54892;47.488;19.026;2023-04-01T02:42:49;98575.69;;;10.63;75.62
68107;BME280;54892;47.488;19.026;2023-04-01T02:45:52;98576.44;;;10.64;75.29
68107;BME280;54892;47.488;19.026;2023-04-01T02:48:56;98564.44;;;10.58;76.06
68107;BME280;54892;47.488;19.026;2023-04-01T02:52:00;98569.41;;;10.59;75.57
68107;BME280;54892;47.488;19.026;2023-04-01T02:55:03;98574.22;;;10.71;75.25
68107;BME280;54892;47.488;19.026;2023-04-01T02:58:06;98577.41;;;10.54;76.24
68107;BME280;54892;47.488;19.026;2023-04-01T03:01:09;98580.41;;;10.47;76.44
68107;BME280;54892;47.488;19.026;2023-04-01T03:04:12;98571.81;;;10.42;76.68
68107;BME280;54892;47.488;19.026;2023-04-01T03:07:16;98579.16;;;10.45;76.55
68107;BME280;54892;47.488;19.026;2023-04-01T03:10:19;98572.66;;;10.37;76.97
68107;BME280;54892;47.488;19.026;2023-04-01T03:13:22;98583.28;;;10.32;76.92
68107;BME280;54892;47.488;19.026;2023-04-01T03:16:25;98576.66;;;10.34;76.95
68107;BME280;54892;47.488;19.026;2023-04-01T03:19:28;98561.69;;;10.30;76.97
68107;BME280;54892;47.488;19.026;2023-04-01T03:22:32;98564.91;;;10.27;77.11
68107;BME280;54892;47.488;19.026;2023-04-01T03:25:36;98569.69;;;10.25;77.10
68107;BME280;54892;47.488;19.026;2023-04-01T03:28:38;98573.97;;;10.20;77.44
68107;BME280;54892;47.488;19.026;2023-04-01T03:31:41;98580.59;;;10.18;77.75
68107;BME280;54892;47.488;19.026;2023-04-01T03:34:44;98591.41;;;10.16;77.94
68107;BME280;54892;47.488;19.026;2023-04-01T03:37:49;98591.41;;;10.16;77.67
68107;BME280;54892;47.488;19.026;2023-04-01T03:40:52;98593.84;;;10.13;77.73
68107;BME280;54892;47.488;19.026;2023-04-01T03:43:55;98589.16;;;10.10;78.00
68107;BME280;54892;47.488;19.026;2023-04-01T03:46:58;98596.34;;;10.04;78.46
68107;BME280;54892;47.488;19.026;2023-04-01T03:50:01;98595.34;;;10.00;78.55
68107;BME280;54892;47.488;19.026;2023-04-01T03:53:06;98597.72;;;10.01;78.41
68107;BME280;54892;47.488;19.026;2023-04-01T03:56:09;98597.97;;;10.00;78.78
68107;BME280;54892;47.488;19.026;2023-04-01T03:59:12;98601.69;;;9.99;78.80
68107;BME280;54892;47.488;19.026;2023-04-01T04:02:15;98602.28;;;9.96;78.76
68107;BME280;54892;47.488;19.026;2023-04-01T04:05:18;98600.63;;;10.00;78.35
68107;BME280;54892;47.488;19.026;2023-04-01T04:08:22;98597.47;;;9.98;78.47
68107;BME280;54892;47.488;19.026;2023-04-01T04:11:25;98598.53;;;9.97;77.70
68107;BME280;54892;47.488;19.026;2023-04-01T04:14:28;98601.13;;;10.02;77.49
68107;BME280;54892;47.488;19.026;2023-04-01T04:17:31;98601.81;;;10.08;77.35
68107;BME280;54892;47.488;19.026;2023-04-01T04:20:34;98597.72;;;10.01;76.98
68107;BME280;54892;47.488;19.026;2023-04-01T04:23:38;98601.63;;;10.04;76.91
68107;BME280;54892;47.488;19.026;2023-04-01T04:26:42;98600.34;;;10.01;76.54
68107;BME280;54892;47.488;19.026;2023-04-01T04:29:45;98608.25;;;10.01;76.50
68107;BME280;54892;47.488;19.026;2023-04-01T04:32:48;98599.03;;;9.99;76.51
68107;BME280;54892;47.488;19.026;2023-04-01T04:35:51;98596.91;;;10.01;76.24
68107;BME280;54892;47.488;19.026;2023-04-01T04:38:55;98596.91;;;10.01;76.16
68107;BME280;54892;47.488;19.026;2023-04-01T04:41:59;98592.94;;;10.03;75.98
68107;BME280;54892;47.488;19.026;2023-04-01T04:45:02;98594.28;;;10.01;75.99
68107;BME280;54892;47.488;19.026;2023-04-01T04:48:06;98595.78;;;10.07;75.57
68107;BME280;54892;47.488;19.026;2023-04-01T04:51:12;98594.22;;;10.06;75.59
68107;BME280;54892;47.488;19.026;2023-04-01T04:54:16;98586.25;;;10.11;74.88
68107;BME280;54892;47.488;19.026;2023-04-01T04:57:19;98586.94;;;10.17;74.48
68107;BME280;54892;47.488;19.026;2023-04-01T05:00:25;98596.06;;;10.25;74.12
68107;BME280;54892;47.488;19.026;2023-04-01T05:03:27;98597.25;;;10.32;73.72
68107;BME280;54892;47.488;19.026;2023-04-01T05:06:30;98596.38;;;10.37;73.45
68107;BME280;54892;47.488;19.026;2023-04-01T05:09:35;98593.72;;;10.42;72.43
68107;BME280;54892;47.488;19.026;2023-04-01T05:12:38;98597.16;;;10.57;71.94
68107;BME280;54892;47.488;19.026;2023-04-01T05:15:41;98600.91;;;10.70;71.11
68107;BME280;54892;47.488;19.026;2023-04-01T05:18:44;98594.84;;;10.69;70.58
68107;BME280;54892;47.488;19.026;2023-04-01T05:21:47;98597.87;;;10.76;69.96
68107;BME280;54892;47.488;19.026;2023-04-01T05:24:51;98599.25;;;10.74;70.04
68107;BME280;54892;47.488;19.026;2023-04-01T05:27:54;98599.16;;;10.93;69.46
68107;BME280;54892;47.488;19.026;2023-04-01T05:30:58;98611.13;;;11.04;69.08
68107;BME280;54892;47.488;19.026;2023-04-01T05:34:01;98607.88;;;11.07;68.74
68107;BME280;54892;47.488;19.026;2023-04-01T05:37:04;98620.03;;;11.22;68.46
68107;BME280;54892;47.488;19.026;2023-04-01T05:40:10;98616.22;;;11.42;67.11
68107;BME280;54892;47.488;19.026;2023-04-01T05:43:13;98616.50;;;11.69;66.20
68107;BME280;54892;47.488;19.026;2023-04-01T05:46:16;98624.00;;;11.90;65.48
68107;BME280;54892;47.488;19.026;2023-04-01T05:49:19;98622.72;;;12.24;64.69
68107;BME280;54892;47.488;19.026;2023-04-01T05:52:22;98620.16;;;12.55;63.02
68107;BME280;54892;47.488;19.026;2023-04-01T05:55:26;98615.56;;;12.70;61.76
68107;BME280;54892;47.488;19.026;2023-04-01T05:58:29;98616.25;;;12.53;62.17
68107;BME280;54892;47.488;19.026;2023-04-01T06:01:32;98616.53;;;12.74;62.38
68107;BME280;54892;47.488;19.026;2023-04-01T06:04:37;98619.22;;;12.83;61.34
68107;BME280;54892;47.488;19.026;2023-04-01T06:07:40;98619.97;;;13.06;61.24
68107;BME280;54892;47.488;19.026;2023-04-01T06:10:48;98621.97;;;13.09;60.73
68107;BME280;54892;47.488;19.026;2023-04-01T06:17:16;98617.00;;;12.76;60.96
68107;BME280;54892;47.488;19.026;2023-04-01T06:20:25;98621.72;;;12.56;60.81
68107;BME280;54892;47.488;19.026;2023-04-01T06:23:34;98615.13;;;12.45;61.16
68107;BME280;54892;47.488;19.026;2023-04-01T06:26:46;98615.28;;;12.48;61.34
68107;BME280;54892;47.488;19.026;2023-04-01T06:29:55;98613.25;;;12.45;60.45
68107;BME280;54892;47.488;19.026;2023-04-01T06:33:10;98624.47;;;12.74;60.42
68107;BME280;54892;47.488;19.026;2023-04-01T06:39:48;98623.59;;;13.68;57.21
68107;BME280;54892;47.488;19.026;2023-04-01T06:43:02;98627.19;;;13.72;56.00
68107;BME280;54892;47.488;19.026;2023-04-01T06:46:09;98635.19;;;14.07;55.63
68107;BME280;54892;47.488;19.026;2023-04-01T06:49:21;98629.56;;;13.91;55.36
68107;BME280;54892;47.488;19.026;2023-04-01T06:52:30;98634.88;;;14.00;54.98
68107;BME280;54892;47.488;19.026;2023-04-01T06:55:40;98634.22;;;14.56;53.71
68107;BME280;54892;47.488;19.026;2023-04-01T06:58:46;98634.34;;;14.86;52.38
68107;BME280;54892;47.488;19.026;2023-04-01T07:01:51;98634.78;;;15.35;51.66
68107;BME280;54892;47.488;19.026;2023-04-01T07:04:55;98627.31;;;15.59;51.16
68107;BME280;54892;47.488;19.026;2023-04-01T07:08:01;98630.84;;;15.72;50.00
68107;BME280;54892;47.488;19.026;2023-04-01T07:11:05;98636.94;;;16.36;49.23
68107;BME280;54892;47.488;19.026;2023-04-01T07:14:12;98641.03;;;17.25;46.97
68107;BME280;54892;47.488;19.026;2023-04-01T07:17:16;98637.75;;;17.94;45.20
68107;BME280;54892;47.488;19.026;2023-04-01T07:20:22;98639.34;;;18.23;44.08
68107;BME280;54892;47.488;19.026;2023-04-01T07:23:29;98639.81;;;18.70;43.16
68107;BME280;54892;47.488;19.026;2023-04-01T07:26:34;98636.97;;;17.93;44.15
68107;BME280;54892;47.488;19.026;2023-04-01T07:29:39;98634.53;;;18.74;42.26
68107;BME280;54892;47.488;19.026;2023-04-01T07:32:42;98633.84;;;19.05;42.02
68107;BME280;54892;47.488;19.026;2023-04-01T07:35:48;98633.31;;;18.99;41.37
68107;BME280;54892;47.488;19.026;2023-04-01T07:38:57;98634.13;;;19.52;40.63
68107;BME280;54892;47.488;19.026;2023-04-01T07:42:04;98633.81;;;19.73;39.42
68107;BME280;54892;47.488;19.026;2023-04-01T07:45:13;98635.06;;;19.59;40.20
68107;BME280;54892;47.488;19.026;2023-04-01T07:48:22;98637.81;;;18.51;42.04
68107;BME280;54892;47.488;19.026;2023-04-01T07:51:27;98641.03;;;17.13;44.92
68107;BME280;54892;47.488;19.026;2023-04-01T07:54:33;98632.75;;;16.81;45.74
68107;BME280;54892;47.488;19.026;2023-04-01T07:57:41;98639.03;;;15.58;49.52
68107;BME280;54892;47.488;19.026;2023-04-01T08:00:48;98632.22;;;15.48;49.95
68107;BME280;54892;47.488;19.026;2023-04-01T08:03:58;98632.66;;;15.50;50.49
68107;BME280;54892;47.488;19.026;2023-04-01T08:07:05;98635.31;;;15.50;50.64
68107;BME280;54892;47.488;19.026;2023-04-01T08:10:11;98638.28;;;15.18;51.25
68107;BME280;54892;47.488;19.026;2023-04-01T08:13:17;98652.00;;;14.73;51.94
68107;BME280;54892;47.488;19.026;2023-04-01T08:16:26;98653.13;;;14.63;52.62
68107;BME280;54892;47.488;19.026;2023-04-01T08:19:36;98648.59;;;14.37;53.40
68107;BME280;54892;47.488;19.026;2023-04-01T08:22:47;98651.25;;;14.02;53.79
68107;BME280;54892;47.488;19.026;2023-04-01T08:25:52;98654.22;;;14.27;53.33
68107;BME280;54892;47.488;19.026;2023-04-01T08:28:58;98647.97;;;14.23;53.75
68107;BME280;54892;47.488;19.026;2023-04-01T08:32:05;98645.19;;;14.37;53.46
68107;BME280;54892;47.488;19.026;2023-04-01T08:35:09;98646.41;;;14.39;53.40
68107;BME280;54892;47.488;19.026;2023-04-01T08:38:18;98642.53;;;14.37;53.29
68107;BME280;54892;47.488;19.026;2023-04-01T08:41:28;98642.03;;;14.43;53.08
68107;BME280;54892;47.488;19.026;2023-04-01T08:44:49;98635.78;;;14.39;53.50
68107;BME280;54892;47.488;19.026;2023-04-01T08:48:10;98643.00;;;14.12;53.38
68107;BME280;54892;47.488;19.026;2023-04-01T08:51:32;98645.19;;;14.28;53.94
68107;BME280;54892;47.488;19.026;2023-04-01T08:58:18;98640.47;;;14.42;53.85
68107;BME280;54892;47.488;19.026;2023-04-01T09:01:39;98647.81;;;14.45;54.17
68107;BME280;54892;47.488;19.026;2023-04-01T09:04:51;98649.53;;;14.59;53.79
68107;BME280;54892;47.488;19.026;2023-04-01T09:08:03;98646.88;;;14.59;53.64
68107;BME280;54892;47.488;19.026;2023-04-01T09:11:12;98656.25;;;14.12;53.76
68107;BME280;54892;47.488;19.026;2023-04-01T09:17:49;98645.31;;;14.23;54.43
68107;BME280;54892;47.488;19.026;2023-04-01T09:21:01;98642.31;;;14.59;53.56
68107;BME280;54892;47.488;19.026;2023-04-01T09:24:13;98644.37;;;14.45;53.99
68107;BME280;54892;47.488;19.026;2023-04-01T09:27:25;98640.00;;;14.49;54.17
68107;BME280;54892;47.488;19.026;2023-04-01T09:34:02;98634.56;;;14.28;54.80
68107;BME280;54892;47.488;19.026;2023-04-01T09:37:16;98642.66;;;14.05;55.22
68107;BME280;54892;47.488;19.026;2023-04-01T09:40:22;98641.69;;;13.66;56.26
68107;BME280;54892;47.488;19.026;2023-04-01T09:43:43;98649.47;;;13.71;55.93
68107;BME280;54892;47.488;19.026;2023-04-01T09:46:54;98640.62;;;13.84;56.11
68107;BME280;54892;47.488;19.026;2023-04-01T09:50:10;98648.12;;;13.91;56.10
68107;BME280;54892;47.488;19.026;2023-04-01T09:53:23;98653.69;;;13.72;56.24
68107;BME280;54892;47.488;19.026;2023-04-01T09:56:52;98652.47;;;13.78;56.68
68107;BME280;54892;47.488;19.026;2023-04-01T10:03:33;98655.91;;;13.96;56.79
68107;BME280;54892;47.488;19.026;2023-04-01T10:20:28;98664.06;;;14.00;55.67
68107;BME280;54892;47.488;19.026;2023-04-01T10:27:06;98662.47;;;13.81;56.79
68107;BME280;54892;47.488;19.026;2023-04-01T10:37:04;98655.47;;;14.12;56.47
68107;BME280;54892;47.488;19.026;2023-04-01T10:40:30;98652.34;;;14.19;55.58
68107;BME280;54892;47.488;19.026;2023-04-01T10:50:25;98652.19;;;14.32;55.11
68107;BME280;54892;47.488;19.026;2023-04-01T10:53:41;98646.88;;;14.32;55.65
68107;BME280;54892;47.488;19.026;2023-04-01T10:56:47;98648.12;;;14.35;54.82
68107;BME280;54892;47.488;19.026;2023-04-01T11:10:10;98643.41;;;14.58;53.30
68107;BME280;54892;47.488;19.026;2023-04-01T11:13:29;98645.31;;;14.75;52.17
68107;BME280;54892;47.488;19.026;2023-04-01T11:16:54;98636.72;;;14.79;52.22
68107;BME280;54892;47.488;19.026;2023-04-01T11:23:43;98630.25;;;14.88;51.47
68107;BME280;54892;47.488;19.026;2023-04-01T11:26:59;98635.59;;;14.80;51.98
68107;BME280;54892;47.488;19.026;2023-04-01T11:30:12;98632.62;;;14.90;52.03
68107;BME280;54892;47.488;19.026;2023-04-01T11:33:19;98637.06;;;15.07;51.58
68107;BME280;54892;47.488;19.026;2023-04-01T11:36:28;98645.16;;;15.19;51.87
68107;BME280;54892;47.488;19.026;2023-04-01T11:39:38;98632.31;;;14.83;50.11
68107;BME280;54892;47.488;19.026;2023-04-01T11:42:49;98633.59;;;14.76;50.94
68107;BME280;54892;47.488;19.026;2023-04-01T11:45:56;98636.87;;;14.56;51.26
68107;BME280;54892;47.488;19.026;2023-04-01T11:49:04;98646.41;;;14.48;52.21
68107;BME280;54892;47.488;19.026;2023-04-01T11:52:12;98651.72;;;14.04;52.81
68107;BME280;54892;47.488;19.026;2023-04-01T11:55:25;98663.88;;;14.05;52.54
68107;BME280;54892;47.488;19.026;2023-04-01T11:58:36;98663.41;;;13.85;52.41
68107;BME280;54892;47.488;19.026;2023-04-01T12:01:43;98662.94;;;13.83;52.76
68107;BME280;54892;47.488;19.026;2023-04-01T12:04:52;98646.22;;;13.83;53.16
68107;BME280;54892;47.488;19.026;2023-04-01T12:08:03;98651.56;;;13.92;52.83
68107;BME280;54892;47.488;19.026;2023-04-01T12:11:10;98653.47;;;14.09;52.97
68107;BME280;54892;47.488;19.026;2023-04-01T12:14:21;98646.75;;;14.38;52.53
68107;BME280;54892;47.488;19.026;2023-04-01T12:17:32;98644.06;;;14.55;51.58
68107;BME280;54892;47.488;19.026;2023-04-01T12:20:40;98646.38;;;14.83;51.75
68107;BME280;54892;47.488;19.026;2023-04-01T12:23:54;98645.56;;;14.91;50.47
68107;BME280;54892;47.488;19.026;2023-04-01T12:27:11;98648.56;;;14.81;50.20
68107;BME280;54892;47.488;19.026;2023-04-01T12:37:18;98644.03;;;14.73;50.61
68107;BME280;54892;47.488;19.026;2023-04-01T12:40:25;98652.66;;;14.43;51.78
68107;BME280;54892;47.488;19.026;2023-04-01T12:43:48;98647.81;;;14.54;51.18
68107;BME280;54892;47.488;19.026;2023-04-01T12:47:08;98649.41;;;14.38;52.39
68107;BME280;54892;47.488;19.026;2023-04-01T12:50:25;98640.00;;;14.58;52.55
68107;BME280;54892;47.488;19.026;2023-04-01T12:53:38;98641.25;;;14.69;52.01
68107;BME280;54892;47.488;19.026;2023-04-01T12:56:47;98634.06;;;14.79;51.35
68107;BME280;54892;47.488;19.026;2023-04-01T13:00:00;98637.22;;;15.11;51.61
68107;BME280;54892;47.488;19.026;2023-04-01T13:03:10;98630.16;;;15.15;50.24
68107;BME280;54892;47.488;19.026;2023-04-01T13:06:20;98623.38;;;15.26;50.21
68107;BME280;54892;47.488;19.026;2023-04-01T13:09:33;98625.75;;;15.28;49.91
68107;BME280;54892;47.488;19.026;2023-04-01T13:12:43;98616.22;;;15.57;48.99
68107;BME280;54892;47.488;19.026;2023-04-01T13:15:51;98616.72;;;15.50;48.82
68107;BME280;54892;47.488;19.026;2023-04-01T13:18:57;98620.91;;;15.30;49.03
68107;BME280;54892;47.488;19.026;2023-04-01T13:22:03;98623.63;;;15.12;49.64
68107;BME280;54892;47.488;19.026;2023-04-01T13:25:14;98626.25;;;15.21;49.51
68107;BME280;54892;47.488;19.026;2023-04-01T13:28:27;98623.44;;;15.17;49.92
68107;BME280;54892;47.488;19.026;2023-04-01T13:31:38;98644.37;;;15.19;49.71
68107;BME280;54892;47.488;19.026;2023-04-01T13:34:50;98645.81;;;15.16;50.11
68107;BME280;54892;47.488;19.026;2023-04-01T13:38:00;98636.59;;;15.14;49.13
68107;BME280;54892;47.488;19.026;2023-04-01T13:41:09;98644.09;;;15.12;50.10
68107;BME280;54892;47.488;19.026;2023-04-01T13:44:17;98651.19;;;14.99;49.35
68107;BME280;54892;47.488;19.026;2023-04-01T13:54:19;98653.22;;;15.02;50.60
68107;BME280;54892;47.488;19.026;2023-04-01T13:57:29;98654.81;;;14.94;50.17
68107;BME280;54892;47.488;19.026;2023-04-01T14:00:41;98661.53;;;14.74;49.59
68107;BME280;54892;47.488;19.026;2023-04-01T14:03:59;98661.56;;;14.48;50.82
68107;BME280;54892;47.488;19.026;2023-04-01T14:07:12;98669.06;;;14.28;52.17
68107;BME280;54892;47.488;19.026;2023-04-01T14:10:20;98678.41;;;14.34;52.88
68107;BME280;54892;47.488;19.026;2023-04-01T14:13:31;98655.16;;;14.13;53.66
68107;BME280;54892;47.488;19.026;2023-04-01T14:23:29;98648.44;;;14.16;53.98
68107;BME280;54892;47.488;19.026;2023-04-01T14:26:42;98651.56;;;14.18;53.89
68107;BME280;54892;47.488;19.026;2023-04-01T14:29:52;98647.97;;;14.23;53.55
68107;BME280;54892;47.488;19.026;2023-04-01T14:33:01;98654.38;;;14.22;52.60
68107;BME280;54892;47.488;19.026;2023-04-01T14:36:17;98648.12;;;14.26;53.39
68107;BME280;54892;47.488;19.026;2023-04-01T14:42:55;98641.25;;;14.43;52.02
68107;BME280;54892;47.488;19.026;2023-04-01T14:46:08;98634.53;;;14.54;50.94
68107;BME280;54892;47.488;19.026;2023-04-01T14:49:15;98629.22;;;14.63;50.97
68107;BME280;54892;47.488;19.026;2023-04-01T14:52:23;98638.28;;;14.71;51.04
68107;BME280;54892;47.488;19.026;2023-04-01T14:55:29;98637.34;;;14.75;51.45
68107;BME280;54892;47.488;19.026;2023-04-01T14:58:43;98636.84;;;14.91;51.41
68107;BME280;54892;47.488;19.026;2023-04-01T15:01:50;98638.41;;;14.83;50.78
68107;BME280;54892;47.488;19.026;2023-04-01T15:04:56;98632.47;;;14.86;50.97
68107;BME280;54892;47.488;19.026;2023-04-01T15:08:15;98629.97;;;14.64;51.63
68107;BME280;54892;47.488;19.026;2023-04-01T15:11:23;98643.13;;;14.77;51.67
68107;BME280;54892;47.488;19.026;2023-04-01T15:17:51;98639.19;;;14.75;52.33
68107;BME280;54892;47.488;19.026;2023-04-01T15:21:04;98644.69;;;14.70;53.09
68107;BME280;54892;47.488;19.026;2023-04-01T15:24:13;98650.75;;;14.79;53.21
68107;BME280;54892;47.488;19.026;2023-04-01T15:27:21;98637.13;;;14.89;53.04
68107;BME280;54892;47.488;19.026;2023-04-01T15:30:33;98644.59;;;15.05;52.61
68107;BME280;54892;47.488;19.026;2023-04-01T15:33:47;98645.19;;;15.11;52.63
68107;BME280;54892;47.488;19.026;2023-04-01T15:36:53;98643.47;;;15.15;52.22
68107;BME280;54892;47.488;19.026;2023-04-01T15:40:02;98647.22;;;15.14;50.66
68107;BME280;54892;47.488;19.026;2023-04-01T15:43:15;98652.06;;;15.12;50.54
68107;BME280;54892;47.488;19.026;2023-04-01T15:46:29;98650.03;;;15.17;50.75
68107;BME280;54892;47.488;19.026;2023-04-01T15:49:35;98645.78;;;15.25;48.85
68107;BME280;54892;47.488;19.026;2023-04-01T15:52:40;98655.94;;;15.23;47.37
68107;BME280;54892;47.488;19.026;2023-04-01T15:55:47;98657.31;;;15.29;47.19
68107;BME280;54892;47.488;19.026;2023-04-01T15:58:56;98669.03;;;15.28;46.91
68107;BME280;54892;47.488;19.026;2023-04-01T16:02:02;98651.81;;;15.34;46.05
68107;BME280;54892;47.488;19.026;2023-04-01T16:05:16;98661.81;;;15.37;45.92
68107;BME280;54892;47.488;19.026;2023-04-01T16:11:53;98664.09;;;15.18;45.85
68107;BME280;54892;47.488;19.026;2023-04-01T16:15:03;98675.69;;;15.13;46.37
68107;BME280;54892;47.488;19.026;2023-04-01T16:21:43;98674.09;;;15.21;46.04
68107;BME280;54892;47.488;19.026;2023-04-01T16:24:48;98685.13;;;14.93;45.73
68107;BME280;54892;47.488;19.026;2023-04-01T16:27:54;98677.59;;;14.95;45.86
68107;BME280;54892;47.488;19.026;2023-04-01T16:30:59;98691.69;;;14.87;46.28
68107;BME280;54892;47.488;19.026;2023-04-01T16:34:08;98684.31;;;15.01;46.12
68107;BME280;54892;47.488;19.026;2023-04-01T16:37:14;98685.53;;;15.04;46.99
68107;BME280;54892;47.488;19.026;2023-04-01T16:40:23;98694.00;;;14.97;46.20
68107;BME280;54892;47.488;19.026;2023-04-01T16:43:30;98689.34;;;14.94;46.61
68107;BME280;54892;47.488;19.026;2023-04-01T16:46:34;98688.56;;;14.76;46.58
68107;BME280;54892;47.488;19.026;2023-04-01T16:49:39;98704.19;;;14.60;47.04
68107;BME280;54892;47.488;19.026;2023-04-01T16:52:51;98701.53;;;14.51;47.22
68107;BME280;54892;47.488;19.026;2023-04-01T16:56:03;98699.34;;;14.44;47.32
68107;BME280;54892;47.488;19.026;2023-04-01T16:59:14;98709.03;;;14.40;47.71
68107;BME280;54892;47.488;19.026;2023-04-01T17:02:22;98705.13;;;14.29;47.70
68107;BME280;54892;47.488;19.026;2023-04-01T17:05:34;98699.66;;;14.25;48.13
68107;BME280;54892;47.488;19.026;2023-04-01T17:08:54;98704.34;;;14.28;48.36
68107;BME280;54892;47.488;19.026;2023-04-01T17:12:03;98704.94;;;14.25;48.48
68107;BME280;54892;47.488;19.026;2023-04-01T17:15:12;98710.09;;;14.13;48.77
68107;BME280;54892;47.488;19.026;2023-04-01T17:18:21;98716.50;;;14.12;49.43
68107;BME280;54892;47.488;19.026;2023-04-01T17:21:35;98723.53;;;14.08;49.25
68107;BME280;54892;47.488;19.026;2023-04-01T17:24:45;98719.59;;;14.05;49.52
68107;BME280;54892;47.488;19.026;2023-04-01T17:27:54;98724.91;;;14.05;49.88
68107;BME280;54892;47.488;19.026;2023-04-01T17:31:02;98728.19;;;14.02;50.48
68107;BME280;54892;47.488;19.026;2023-04-01T17:34:23;98732.06;;;13.96;51.19
68107;BME280;54892;47.488;19.026;2023-04-01T17:37:38;98728.16;;;13.84;51.24
68107;BME280;54892;47.488;19.026;2023-04-01T17:40:52;98735.63;;;13.82;51.58
68107;BME280;54892;47.488;19.026;2023-04-01T17:44:02;98748.25;;;13.77;52.29
68107;BME280;54892;47.488;19.026;2023-04-01T17:50:36;98745.91;;;13.75;51.85
68107;BME280;54892;47.488;19.026;2023-04-01T17:53:49;98742.91;;;13.68;52.18
68107;BME280;54892;47.488;19.026;2023-04-01T17:57:06;98753.66;;;13.63;53.05
68107;BME280;54892;47.488;19.026;2023-04-01T18:00:18;98754.69;;;13.53;53.51
68107;BME280;54892;47.488;19.026;2023-04-01T18:03:41;98755.12;;;13.46;54.01
68107;BME280;54892;47.488;19.026;2023-04-01T18:06:50;98768.03;;;13.39;54.52
68107;BME280;54892;47.488;19.026;2023-04-01T18:10:07;98773.44;;;13.34;54.92